createdAt,value
2022-09-24T00:01:32.587Z,74.50
2022-09-24T00:04:07.306Z,74.54
2022-09-24T00:06:41.797Z,74.53
2022-09-24T00:09:11.516Z,74.49
2022-09-24T00:11:40.212Z,74.50
2022-09-24T00:14:08.344Z,74.41
2022-09-24T00:16:40.478Z,74.37
2022-09-24T00:19:08.378Z,74.32
2022-09-24T00:21:37.870Z,74.31
2022-09-24T00:24:36.179Z,74.32
2022-09-24T00:27:06.133Z,74.27
2022-09-24T00:29:35.621Z,74.31
2022-09-24T00:32:06.282Z,74.24
2022-09-24T00:34:34.494Z,74.16
2022-09-24T00:37:02.472Z,74.19
2022-09-24T00:39:30.344Z,74.08
2022-09-24T00:41:58.345Z,74.11
2022-09-24T00:44:44.935Z,74.19
2022-09-24T00:47:14.874Z,74.27
2022-09-24T00:49:42.691Z,74.43
2022-09-24T00:52:10.835Z,74.56
2022-09-24T00:54:39.679Z,74.61
2022-09-24T00:57:07.687Z,74.74
2022-09-24T00:59:35.904Z,74.84
2022-09-24T01:02:05.333Z,74.84
2022-09-24T01:04:33.360Z,74.85
2022-09-24T01:07:01.563Z,74.80
2022-09-24T01:09:29.916Z,74.67
2022-09-24T01:12:04.129Z,74.47
2022-09-24T01:14:57.996Z,74.55
2022-09-24T01:17:49.812Z,74.54
2022-09-24T01:20:28.265Z,74.45
2022-09-24T01:23:03.366Z,74.29
2022-09-24T01:26:08.043Z,74.14
2022-09-24T01:28:55.179Z,74.05
2022-09-24T01:31:41.876Z,73.74
2022-09-24T01:34:12.254Z,73.54
2022-09-24T01:36:40.796Z,73.67
2022-09-24T01:39:09.227Z,73.76
2022-09-24T01:41:38.604Z,73.83
2022-09-24T01:44:07.480Z,73.76
2022-09-24T01:46:39.424Z,73.69
2022-09-24T01:49:08.528Z,73.73
2022-09-24T01:51:49.481Z,73.66
2022-09-24T01:54:28.353Z,73.66
2022-09-24T01:57:24.281Z,73.73
2022-09-24T02:00:05.362Z,73.74
2022-09-24T02:02:45.444Z,73.67
2022-09-24T02:05:32.812Z,73.76
2022-09-24T02:08:14.990Z,73.89
2022-09-24T02:10:56.795Z,73.85
2022-09-24T02:13:27.758Z,73.88
2022-09-24T02:16:00.011Z,73.87
2022-09-24T02:18:33.651Z,73.84
2022-09-24T02:21:05.517Z,73.83
2022-09-24T02:23:37.698Z,73.88
2022-09-24T02:26:05.745Z,73.92
2022-09-24T02:28:34.280Z,74.00
2022-09-24T02:31:18.791Z,74.06
2022-09-24T02:34:08.096Z,74.03
2022-09-24T02:36:36.736Z,74.03
2022-09-24T02:39:04.822Z,74.03
2022-09-24T02:41:32.778Z,74.14
2022-09-24T02:44:00.689Z,74.20
2022-09-24T02:46:29.311Z,74.15
2022-09-24T02:48:57.789Z,73.98
2022-09-24T02:51:26.511Z,73.91
2022-09-24T02:53:54.285Z,73.89
2022-09-24T02:56:22.171Z,73.86
2022-09-24T02:58:49.901Z,73.83
2022-09-24T03:01:17.912Z,73.85
2022-09-24T03:03:46.141Z,73.89
2022-09-24T03:06:14.339Z,73.88
2022-09-24T03:08:43.316Z,73.92
2022-09-24T03:11:16.353Z,74.03
2022-09-24T03:13:46.305Z,74.18
2022-09-24T03:16:15.272Z,74.34
2022-09-24T03:18:43.289Z,74.49
2022-09-24T03:21:13.454Z,74.68
2022-09-24T03:23:41.792Z,74.81
2022-09-24T03:26:09.702Z,74.87
2022-09-24T03:28:38.114Z,74.91
2022-09-24T03:31:06.530Z,74.83
2022-09-24T03:33:40.402Z,74.81
2022-09-24T03:36:22.860Z,74.78
2022-09-24T03:38:56.514Z,74.75
2022-09-24T03:41:27.510Z,74.75
2022-09-24T03:43:56.003Z,74.72
2022-09-24T03:46:28.424Z,74.75
2022-09-24T03:48:57.976Z,74.81
2022-09-24T03:51:26.090Z,74.85
2022-09-24T03:53:53.953Z,74.98
2022-09-24T03:56:21.754Z,75.05
2022-09-24T03:58:49.539Z,75.13
2022-09-24T04:01:21.721Z,75.22
2022-09-24T04:03:50.628Z,75.25
2022-09-24T04:06:24.871Z,75.33
2022-09-24T04:08:54.127Z,75.39
2022-09-24T04:11:24.715Z,75.40
2022-09-24T04:13:53.650Z,75.39
2022-09-24T04:16:22.208Z,75.33
2022-09-24T04:18:52.608Z,75.37
2022-09-24T04:21:21.669Z,75.43
2022-09-24T04:23:52.156Z,75.46
2022-09-24T04:26:21.718Z,75.51
2022-09-24T04:28:50.602Z,75.51
2022-09-24T04:31:19.361Z,75.55
2022-09-24T04:33:47.378Z,75.60
2022-09-24T04:36:15.307Z,75.66
2022-09-24T04:38:43.335Z,75.71
2022-09-24T04:41:12.579Z,75.79
2022-09-24T04:43:46.074Z,75.88
2022-09-24T04:46:15.017Z,75.98
2022-09-24T04:48:56.534Z,76.04
2022-09-24T04:51:27.292Z,76.09
2022-09-24T04:54:02.079Z,76.13
2022-09-24T04:56:39.474Z,76.25
2022-09-24T04:59:18.257Z,76.34
2022-09-24T05:01:51.713Z,76.41
2022-09-24T05:04:20.312Z,76.47
2022-09-24T05:07:00.171Z,76.58
2022-09-24T05:09:32.337Z,76.69
2022-09-24T05:12:04.912Z,76.74
2022-09-24T05:14:36.317Z,76.75
2022-09-24T05:17:07.964Z,76.80
2022-09-24T05:19:38.313Z,76.88
2022-09-24T05:22:29.486Z,76.91
2022-09-24T05:24:57.913Z,76.90
2022-09-24T05:27:43.648Z,76.90
2022-09-24T05:31:37.906Z,76.88
2022-09-24T05:34:11.142Z,76.83
2022-09-24T05:37:02.016Z,76.80
2022-09-24T05:39:34.083Z,76.81
2022-09-24T05:42:05.067Z,76.84
2022-09-24T05:44:32.853Z,76.84
2022-09-24T05:47:00.723Z,76.82
2022-09-24T05:49:28.544Z,76.81
2022-09-24T05:52:00.279Z,76.83
2022-09-24T05:54:28.284Z,76.86
2022-09-24T05:56:56.165Z,76.90
2022-09-24T06:00:46.202Z,76.93
2022-09-24T06:03:16.006Z,76.90
2022-09-24T06:05:49.726Z,76.90
2022-09-24T06:08:19.427Z,76.84
2022-09-24T06:10:48.690Z,76.99
2022-09-24T06:13:19.100Z,76.97
2022-09-24T06:15:47.255Z,76.88
2022-09-24T06:18:15.424Z,76.77
2022-09-24T06:20:44.838Z,76.74
2022-09-24T06:23:13.863Z,76.75
2022-09-24T06:25:43.453Z,76.71
2022-09-24T06:28:11.446Z,76.70
2022-09-24T06:30:39.895Z,76.65
2022-09-24T06:33:11.772Z,76.36
2022-09-24T06:35:44.676Z,75.86
2022-09-24T06:38:18.428Z,75.79
2022-09-24T06:40:48.818Z,75.59
2022-09-24T06:43:20.661Z,75.05
2022-09-24T06:45:48.733Z,74.72
2022-09-24T06:48:18.043Z,74.58
2022-09-24T06:50:47.465Z,74.57
2022-09-24T06:53:16.086Z,74.19
2022-09-24T06:55:46.860Z,74.13
2022-09-24T06:58:20.155Z,74.07
2022-09-24T07:01:00.500Z,74.00
2022-09-24T07:03:32.578Z,72.34
2022-09-24T07:06:03.961Z,71.56
2022-09-24T07:08:36.095Z,71.81
2022-09-24T07:11:04.225Z,71.97
2022-09-24T07:13:38.065Z,71.56
2022-09-24T07:16:13.738Z,71.45
2022-09-24T07:18:42.072Z,70.29
2022-09-24T07:21:10.072Z,69.85
2022-09-24T07:23:38.033Z,69.48
2022-09-24T07:26:06.204Z,68.82
2022-09-24T07:28:36.572Z,68.50
2022-09-24T07:31:04.701Z,68.05
2022-09-24T07:33:32.629Z,67.91
2022-09-24T07:36:07.394Z,67.82
2022-09-24T07:38:39.013Z,67.72
2022-09-24T07:41:09.645Z,67.05
2022-09-24T07:43:37.463Z,66.79
2022-09-24T07:46:05.992Z,65.69
2022-09-24T07:48:33.787Z,65.36
2022-09-24T07:51:01.630Z,65.47
2022-09-24T07:53:29.439Z,65.14
2022-09-24T07:56:00.665Z,64.74
2022-09-24T07:58:32.038Z,64.27
2022-09-24T08:01:01.836Z,63.77
2022-09-24T08:03:33.301Z,62.94
2022-09-24T08:06:01.942Z,62.20
2022-09-24T08:08:30.212Z,61.79
2022-09-24T08:10:58.178Z,61.55
2022-09-24T08:13:27.860Z,61.50
2022-09-24T08:15:59.720Z,61.32
2022-09-24T08:18:31.850Z,61.25
2022-09-24T08:21:09.459Z,61.34
2022-09-24T08:23:40.239Z,61.38
2022-09-24T08:26:09.056Z,61.85
2022-09-24T08:28:38.126Z,61.75
2022-09-24T08:31:10.119Z,61.55
2022-09-24T08:33:39.219Z,61.36
2022-09-24T08:36:09.913Z,60.77
2022-09-24T08:38:40.552Z,60.03
2022-09-24T08:41:14.308Z,60.42
2022-09-24T08:43:54.610Z,60.67
2022-09-24T08:57:14.497Z,60.30
2022-09-24T08:59:48.931Z,60.72
2022-09-24T09:02:56.818Z,60.30
2022-09-24T09:05:53.942Z,59.37
2022-09-24T09:09:05.095Z,59.43
2022-09-24T09:11:35.820Z,59.20
2022-09-24T09:14:26.095Z,58.95
2022-09-24T09:17:03.636Z,57.18
2022-09-24T09:19:39.677Z,56.80
2022-09-24T09:22:16.358Z,56.81
2022-09-24T09:24:52.264Z,55.77
2022-09-24T09:27:30.410Z,55.53
2022-09-24T09:30:08.058Z,54.52
2022-09-24T09:33:18.995Z,54.47
2022-09-24T09:36:00.863Z,53.76
2022-09-24T09:38:51.789Z,53.13
2022-09-24T09:41:54.466Z,49.66
2022-09-24T09:44:30.374Z,47.78
2022-09-24T09:47:16.952Z,45.73
2022-09-24T09:50:06.423Z,45.39
2022-09-24T09:52:46.197Z,45.59
2022-09-24T09:56:06.156Z,43.49
2022-09-24T09:59:36.948Z,43.78
2022-09-24T10:02:58.121Z,42.60
2022-09-24T10:05:32.770Z,41.13
2022-09-24T10:08:24.362Z,39.08
2022-09-24T10:11:01.535Z,37.82
2022-09-24T10:13:32.651Z,37.54
2022-09-24T10:16:06.663Z,37.55
2022-09-24T10:18:58.302Z,36.46
2022-09-24T10:21:44.907Z,36.05
2022-09-24T10:24:38.589Z,37.17
2022-09-24T10:27:19.436Z,36.07
2022-09-24T10:30:07.617Z,36.18
2022-09-24T10:32:54.468Z,36.44
2022-09-24T10:35:35.874Z,35.31
2022-09-24T10:38:17.168Z,35.11
2022-09-24T10:40:46.450Z,35.40
2022-09-24T10:43:21.718Z,35.95
2022-09-24T10:46:24.962Z,35.97
2022-09-24T10:49:13.689Z,36.20
2022-09-24T10:52:04.714Z,36.38
2022-09-24T10:54:57.345Z,36.99
2022-09-24T10:57:35.078Z,36.45
2022-09-24T11:00:22.460Z,36.35
2022-09-24T11:03:20.209Z,36.38
2022-09-24T11:06:18.685Z,36.79
2022-09-24T11:09:26.788Z,35.17
2022-09-24T11:12:05.744Z,35.14
2022-09-24T11:15:01.779Z,35.11
2022-09-24T11:17:52.822Z,36.42
2022-09-24T11:20:30.490Z,36.28
2022-09-24T11:23:44.808Z,36.47
2022-09-24T11:26:46.131Z,36.45
2022-09-24T11:29:39.806Z,37.08
2022-09-24T11:32:33.073Z,38.61
2022-09-24T11:35:24.316Z,39.27
2022-09-24T11:38:09.719Z,39.38
2022-09-24T11:41:12.499Z,40.48
2022-09-24T11:44:05.007Z,41.41
2022-09-24T11:47:15.199Z,41.73
2022-09-24T11:50:21.368Z,42.55
2022-09-24T11:53:08.886Z,43.44
2022-09-24T11:55:52.065Z,43.58
2022-09-24T11:59:09.816Z,43.82
2022-09-24T12:01:41.162Z,44.22
2022-09-24T12:04:19.417Z,44.27
2022-09-24T12:06:56.974Z,44.38
2022-09-24T12:09:44.181Z,44.90
2022-09-24T12:12:40.515Z,45.18
2022-09-24T12:15:21.842Z,45.37
2022-09-24T12:18:04.334Z,45.89
2022-09-24T12:20:50.818Z,45.21
2022-09-24T12:23:29.754Z,44.31
2022-09-24T12:26:21.668Z,44.68
2022-09-24T12:29:48.848Z,45.29
2022-09-24T12:32:59.832Z,45.86
2022-09-24T12:36:04.758Z,45.44
2022-09-24T12:38:57.886Z,44.21
2022-09-24T12:41:33.405Z,43.79
2022-09-24T12:44:11.600Z,44.15
2022-09-24T12:46:53.488Z,44.09
2022-09-24T12:49:33.002Z,43.95
2022-09-24T12:52:25.004Z,43.24
2022-09-24T12:55:03.045Z,42.92
2022-09-24T12:57:37.023Z,42.85
2022-09-24T13:00:39.545Z,42.97
2022-09-24T13:03:33.987Z,41.20
2022-09-24T13:06:33.438Z,41.28
2022-09-24T13:09:46.025Z,40.47
2022-09-24T13:12:47.406Z,40.07
2022-09-24T13:15:42.508Z,40.33
2022-09-24T13:18:14.936Z,40.43
2022-09-24T13:20:50.097Z,40.07
2022-09-24T13:23:22.426Z,39.74
2022-09-24T13:26:06.106Z,39.55
2022-09-24T13:29:09.037Z,39.62
2022-09-24T13:39:08.117Z,42.12
2022-09-24T13:42:02.673Z,42.11
2022-09-24T13:44:58.740Z,42.50
2022-09-24T13:48:28.324Z,43.23
2022-09-24T13:50:59.249Z,43.56
2022-09-24T13:53:45.484Z,44.20
2022-09-24T13:56:18.915Z,44.21
2022-09-24T13:58:55.426Z,43.77
2022-09-24T14:01:30.547Z,43.51
2022-09-24T14:04:25.831Z,43.73
2022-09-24T14:06:58.957Z,43.47
2022-09-24T14:09:58.482Z,42.63
2022-09-24T14:12:39.129Z,41.78
2022-09-24T14:15:21.063Z,41.74
2022-09-24T14:18:01.536Z,41.97
2022-09-24T14:20:35.993Z,41.97
2022-09-24T14:23:05.320Z,41.73
2022-09-24T14:25:47.940Z,42.25
2022-09-24T14:28:17.523Z,42.59
2022-09-24T14:30:54.364Z,44.36
2022-09-24T14:33:29.895Z,43.83
2022-09-24T14:35:59.410Z,44.01
2022-09-24T14:38:36.662Z,44.24
2022-09-24T14:41:32.295Z,43.93
2022-09-24T14:44:06.097Z,44.31
2022-09-24T14:46:50.615Z,44.38
2022-09-24T14:49:56.090Z,44.53
2022-09-24T14:52:30.736Z,44.49
2022-09-24T14:55:24.671Z,44.73
2022-09-24T14:57:57.980Z,44.85
2022-09-24T15:00:48.059Z,45.25
2022-09-24T15:03:23.415Z,45.09
2022-09-24T15:06:28.987Z,45.21
2022-09-24T15:09:31.664Z,44.67
2022-09-24T15:12:30.676Z,44.45
2022-09-24T15:15:21.059Z,45.18
2022-09-24T15:17:49.561Z,45.74
2022-09-24T15:20:21.801Z,46.00
2022-09-24T15:22:49.962Z,46.50
2022-09-24T15:25:17.746Z,46.81
2022-09-24T15:27:52.795Z,46.48
2022-09-24T15:30:25.580Z,46.16
2022-09-24T15:33:02.391Z,46.28
2022-09-24T15:35:40.016Z,46.72
2022-09-24T15:38:18.659Z,46.50
2022-09-24T15:40:53.555Z,46.77
2022-09-24T15:43:25.127Z,47.00
2022-09-24T15:45:53.423Z,47.19
2022-09-24T15:48:20.324Z,47.46
2022-09-24T15:50:57.292Z,47.37
2022-09-24T15:53:31.017Z,47.75
2022-09-24T15:56:00.632Z,48.72
2022-09-24T15:58:34.421Z,49.54
2022-09-24T16:01:19.925Z,50.01
2022-09-24T16:03:46.869Z,50.48
2022-09-24T16:06:13.682Z,51.45
2022-09-24T16:08:44.654Z,52.31
2022-09-24T16:11:11.801Z,52.55
2022-09-24T16:13:45.478Z,52.67
2022-09-24T16:16:13.055Z,53.69
2022-09-24T16:18:42.760Z,54.56
2022-09-24T16:21:13.952Z,55.68
2022-09-24T16:23:42.684Z,56.90
2022-09-24T16:26:09.694Z,57.85
2022-09-24T16:28:38.653Z,58.67
2022-09-24T16:31:07.018Z,59.52
2022-09-24T16:33:39.309Z,60.01
2022-09-24T16:36:08.241Z,60.58
2022-09-24T16:38:40.937Z,61.10
2022-09-24T16:41:08.026Z,61.44
2022-09-24T16:43:34.971Z,61.45
2022-09-24T16:46:07.385Z,61.63
2022-09-24T16:48:34.459Z,61.79
2022-09-24T16:51:10.951Z,61.68
2022-09-24T16:53:48.416Z,62.31
2022-09-24T16:56:23.995Z,62.66
2022-09-24T16:59:01.227Z,62.80
2022-09-24T17:04:43.255Z,63.12
2022-09-24T17:07:31.505Z,63.12
2022-09-24T17:10:21.213Z,63.29
2022-09-24T17:13:05.718Z,63.48
2022-09-24T17:15:38.411Z,63.73
2022-09-24T17:18:12.778Z,63.98
2022-09-24T17:20:48.150Z,64.18
2022-09-24T17:23:17.563Z,64.01
2022-09-24T17:25:47.766Z,64.08
2022-09-24T17:28:23.454Z,64.23
2022-09-24T17:30:51.517Z,64.35
2022-09-24T17:33:41.845Z,64.43
2022-09-24T17:36:09.232Z,64.60
2022-09-24T17:38:37.067Z,64.79
2022-09-24T17:41:07.524Z,65.03
2022-09-24T17:43:37.409Z,65.18
2022-09-24T17:46:16.462Z,65.40
2022-09-24T17:48:52.691Z,65.54
2022-09-24T17:51:32.565Z,65.74
2022-09-24T17:54:05.139Z,65.82
2022-09-24T17:56:33.829Z,66.03
2022-09-24T17:59:00.673Z,66.34
2022-09-24T18:01:38.173Z,66.56
2022-09-24T18:04:16.485Z,66.73
2022-09-24T18:06:46.067Z,67.03
2022-09-24T18:09:15.279Z,67.41
2022-09-24T18:11:46.659Z,67.50
2022-09-24T18:14:21.622Z,67.60
2022-09-24T18:16:50.067Z,67.80
2022-09-24T18:19:17.798Z,67.72
2022-09-24T18:21:46.296Z,67.75
2022-09-24T18:24:16.217Z,67.76
2022-09-24T18:26:43.882Z,67.71
2022-09-24T18:29:16.020Z,67.77
2022-09-24T18:31:44.367Z,68.01
2022-09-24T18:34:15.020Z,68.28
2022-09-24T18:36:44.363Z,68.54
2022-09-24T18:39:13.979Z,68.86
2022-09-24T18:41:45.668Z,69.06
2022-09-24T18:44:14.233Z,69.29
2022-09-24T18:46:41.556Z,69.39
2022-09-24T18:49:09.704Z,69.43
2022-09-24T18:51:41.083Z,69.64
2022-09-24T18:54:12.034Z,69.87
2022-09-24T18:56:39.444Z,69.94
2022-09-24T18:59:11.528Z,69.99
2022-09-24T19:01:40.124Z,69.94
2022-09-24T19:04:11.080Z,69.70
2022-09-24T19:06:47.889Z,69.62
2022-09-24T19:09:23.297Z,69.49
2022-09-24T19:11:50.637Z,69.29
2022-09-24T19:14:22.241Z,69.41
2022-09-24T19:17:00.381Z,69.55
2022-09-24T19:20:13.846Z,69.75
2022-09-24T19:23:13.057Z,70.22
2022-09-24T19:25:45.298Z,70.58
2022-09-24T19:28:39.920Z,70.59
2022-09-24T19:31:32.069Z,70.55
2022-09-24T19:34:03.302Z,70.53
2022-09-24T19:36:42.953Z,70.68
2022-09-24T19:39:14.771Z,70.33
2022-09-24T19:41:45.757Z,70.24
2022-09-24T19:44:13.025Z,70.18
2022-09-24T19:46:43.575Z,70.01
2022-09-24T19:49:17.918Z,70.08
2022-09-24T19:51:52.732Z,70.09
2022-09-24T19:54:19.717Z,70.13
2022-09-24T19:56:58.950Z,70.36
2022-09-24T19:59:33.206Z,70.53
2022-09-24T20:02:01.507Z,70.68
2022-09-24T20:04:32.618Z,70.78
2022-09-24T20:07:05.650Z,70.95
2022-09-24T20:09:36.309Z,71.32
2022-09-24T20:12:04.181Z,71.60
2022-09-24T20:15:50.018Z,71.81
2022-09-24T20:18:25.309Z,71.94
2022-09-24T20:20:55.642Z,72.13
2022-09-24T20:23:48.726Z,72.30
2022-09-24T20:26:38.321Z,72.50
2022-09-24T20:29:32.238Z,72.85
2022-09-24T20:32:04.816Z,73.15
2022-09-24T20:34:35.794Z,73.47
2022-09-24T20:37:05.741Z,73.73
2022-09-24T20:39:40.477Z,73.77
2022-09-24T20:42:08.370Z,73.78
2022-09-24T20:44:41.602Z,73.81
2022-09-24T20:47:10.029Z,73.93
2022-09-24T20:49:37.466Z,74.08
2022-09-24T20:52:05.252Z,74.22
2022-09-24T20:54:33.217Z,74.18
2022-09-24T20:56:59.926Z,74.22
2022-09-24T20:59:26.901Z,74.27
2022-09-24T21:01:56.918Z,74.29
2022-09-24T21:04:23.943Z,74.36
2022-09-24T21:06:50.756Z,74.49
2022-09-24T21:09:17.965Z,74.68
2022-09-24T21:11:45.505Z,74.93
2022-09-24T21:14:17.385Z,75.11
2022-09-24T21:16:45.166Z,75.17
2022-09-24T21:19:13.915Z,75.22
2022-09-24T21:21:45.501Z,75.25
2022-09-24T21:24:16.083Z,75.35
2022-09-24T21:26:46.664Z,75.50
2022-09-24T21:29:18.188Z,75.61
2022-09-24T21:31:46.752Z,75.59
2022-09-24T21:34:19.387Z,75.68
2022-09-24T21:36:46.570Z,75.87
2022-09-24T21:39:22.513Z,75.99
2022-09-24T21:41:52.658Z,76.13
2022-09-24T21:44:20.170Z,76.22
2022-09-24T21:46:50.559Z,76.25
2022-09-24T21:49:18.988Z,76.32
2022-09-24T21:51:46.775Z,76.37
2022-09-24T21:54:16.472Z,76.47
2022-09-24T21:56:44.259Z,76.49
2022-09-24T21:59:31.597Z,76.41
2022-09-24T22:02:00.939Z,76.35
2022-09-24T22:04:28.262Z,76.47
2022-09-24T22:06:55.310Z,76.49
2022-09-24T22:09:24.650Z,76.54
2022-09-24T22:11:52.208Z,76.48
2022-09-24T22:14:19.223Z,76.43
2022-09-24T22:16:46.704Z,76.35
2022-09-24T22:19:14.245Z,76.25
2022-09-24T22:21:41.028Z,76.32
2022-09-24T22:24:08.073Z,76.34
2022-09-24T22:26:35.665Z,76.33
2022-09-24T22:29:03.424Z,76.29
2022-09-24T22:31:30.321Z,76.40
2022-09-24T22:34:15.548Z,76.49
2022-09-24T22:36:42.061Z,76.53
2022-09-24T22:39:08.762Z,76.56
2022-09-24T22:41:39.397Z,76.59
2022-09-24T22:44:06.807Z,76.65
2022-09-24T22:46:35.502Z,76.71
2022-09-24T22:49:04.686Z,76.74
2022-09-24T22:51:33.074Z,76.76
2022-09-24T22:53:59.633Z,76.83
2022-09-24T22:56:27.376Z,76.87
2022-09-24T22:58:59.783Z,76.93
2022-09-24T23:01:30.788Z,76.96
2022-09-24T23:03:57.695Z,76.98
2022-09-24T23:06:29.574Z,77.00
2022-09-24T23:08:56.685Z,77.02
2022-09-24T23:11:26.889Z,77.07
2022-09-24T23:13:57.073Z,77.14
2022-09-24T23:16:34.435Z,77.21
2022-09-24T23:19:04.833Z,77.21
2022-09-24T23:21:32.855Z,77.20
2022-09-24T23:24:23.527Z,77.21
2022-09-24T23:26:50.542Z,77.20
2022-09-24T23:29:17.118Z,77.23
2022-09-24T23:31:43.739Z,77.16
2022-09-24T23:34:11.680Z,77.14
2022-09-24T23:36:38.576Z,77.15
2022-09-24T23:39:05.514Z,77.26
2022-09-24T23:41:37.480Z,77.31
2022-09-24T23:44:10.732Z,77.40
2022-09-24T23:46:37.935Z,77.61
2022-09-24T23:49:06.861Z,77.75
2022-09-24T23:51:33.774Z,77.82
2022-09-24T23:54:01.961Z,77.88
2022-09-24T23:56:28.905Z,77.89
2022-09-24T23:58:57.042Z,77.86
